sensor_id;sensor_type;location;lat;lon;timestamp;pressure;altitude;pressure_sealevel;temperature;humidity
44765;BME280;30484;52.382;5.260;2022-09-02T00:00:07;101923.34;;;18.50;100.00
44765;BME280;30484;52.382;5.260;2022-09-02T00:02:41;101919.19;;;18.44;100.00
44765;BME280;30484;52.382;5.260;2022-09-02T00:05:10;101922.66;;;18.46;100.00
44765;BME280;30484;52.382;5.260;2022-09-02T00:07:39;101924.06;;;18.25;100.00
44765;BME280;30484;52.382;5.260;2022-09-02T00:10:08;101920.31;;;18.27;100.00
44765;BME280;30484;52.382;5.260;2022-09-02T00:12:37;101923.91;;;18.14;100.00
44765;BME280;30484;52.382;5.260;2022-09-02T00:15:06;101916.84;;;18.11;100.00
44765;BME280;30484;52.382;5.260;2022-09-02T00:17:35;101924.06;;;18.25;100.00
44765;BME280;30484;52.382;5.260;2022-09-02T00:20:12;101929.16;;;18.02;100.00
44765;BME280;30484;52.382;5.260;2022-09-02T00:22:41;101921.22;;;18.14;100.00
44765;BME280;30484;52.382;5.260;2022-09-02T00:25:12;101924.13;;;18.10;100.00
44765;BME280;30484;52.382;5.260;2022-09-02T00:27:41;101916.16;;;18.22;100.00
44765;BME280;30484;52.382;5.260;2022-09-02T00:30:12;101920.47;;;17.97;100.00
44765;BME280;30484;52.382;5.260;2022-09-02T00:32:40;101915.84;;;17.99;100.00
44765;BME280;30484;52.382;5.260;2022-09-02T00:35:11;101908.59;;;17.71;100.00
44765;BME280;30484;52.382;5.260;2022-09-02T00:37:39;101918.44;;;18.01;100.00
44765;BME280;30484;52.382;5.260;2022-09-02T00:40:09;101900.84;;;18.08;100.00
44765;BME280;30484;52.382;5.260;2022-09-02T00:42:39;101911.19;;;18.01;100.00
44765;BME280;30484;52.382;5.260;2022-09-02T00:45:10;101910.97;;;17.75;100.00
44765;BME280;30484;52.382;5.260;2022-09-02T00:47:39;101902.88;;;18.04;100.00
44765;BME280;30484;52.382;5.260;2022-09-02T00:50:15;101896.22;;;17.96;100.00
44765;BME280;30484;52.382;5.260;2022-09-02T00:52:48;101905.78;;;17.72;100.00
44765;BME280;30484;52.382;5.260;2022-09-02T00:55:21;101903.66;;;17.77;100.00
44765;BME280;30484;52.382;5.260;2022-09-02T00:57:55;101894.22;;;17.70;100.00
44765;BME280;30484;52.382;5.260;2022-09-02T01:00:29;101893.81;;;17.76;100.00
44765;BME280;30484;52.382;5.260;2022-09-02T01:03:05;101890.16;;;17.77;100.00
44765;BME280;30484;52.382;5.260;2022-09-02T01:05:38;101886.75;;;17.74;100.00
44765;BME280;30484;52.382;5.260;2022-09-02T01:08:12;101891.31;;;17.73;100.00
44765;BME280;30484;52.382;5.260;2022-09-02T01:10:47;101893.94;;;17.60;100.00
44765;BME280;30484;52.382;5.260;2022-09-02T01:13:19;101883.66;;;17.66;100.00
44765;BME280;30484;52.382;5.260;2022-09-02T01:15:52;101888.41;;;17.62;100.00
44765;BME280;30484;52.382;5.260;2022-09-02T01:18:28;101882.84;;;17.51;100.00
44765;BME280;30484;52.382;5.260;2022-09-02T01:21:00;101885.72;;;17.48;100.00
44765;BME280;30484;52.382;5.260;2022-09-02T01:23:32;101884.66;;;17.50;100.00
44765;BME280;30484;52.382;5.260;2022-09-02T01:26:02;101883.59;;;17.53;100.00
44765;BME280;30484;52.382;5.260;2022-09-02T01:28:33;101876.47;;;17.23;100.00
44765;BME280;30484;52.382;5.260;2022-09-02T01:31:03;101889.00;;;17.53;100.00
44765;BME280;30484;52.382;5.260;2022-09-02T01:33:33;101874.81;;;17.35;100.00
44765;BME280;30484;52.382;5.260;2022-09-02T01:36:02;101886.78;;;17.31;100.00
44765;BME280;30484;52.382;5.260;2022-09-02T01:38:32;101883.28;;;17.14;100.00
44765;BME280;30484;52.382;5.260;2022-09-02T01:41:00;101873.78;;;17.23;100.00
44765;BME280;30484;52.382;5.260;2022-09-02T01:43:29;101859.75;;;17.16;100.00
44765;BME280;30484;52.382;5.260;2022-09-02T01:45:58;101862.47;;;17.31;100.00
44765;BME280;30484;52.382;5.260;2022-09-02T01:48:27;101855.81;;;17.22;100.00
44765;BME280;30484;52.382;5.260;2022-09-02T01:50:59;101866.31;;;16.98;100.00
44765;BME280;30484;52.382;5.260;2022-09-02T01:53:29;101867.97;;;17.15;100.00
44765;BME280;30484;52.382;5.260;2022-09-02T01:55:59;101862.06;;;17.37;100.00
44765;BME280;30484;52.382;5.260;2022-09-02T01:58:28;101859.66;;;17.03;100.00
44765;BME280;30484;52.382;5.260;2022-09-02T02:00:56;101852.72;;;17.14;100.00
44765;BME280;30484;52.382;5.260;2022-09-02T02:03:25;101861.78;;;17.13;100.00
44765;BME280;30484;52.382;5.260;2022-09-02T02:05:55;101862.75;;;17.12;100.00
44765;BME280;30484;52.382;5.260;2022-09-02T02:08:25;101861.31;;;17.06;100.00
44765;BME280;30484;52.382;5.260;2022-09-02T02:10:53;101860.50;;;17.04;100.00
44765;BME280;30484;52.382;5.260;2022-09-02T02:13:25;101855.97;;;17.04;100.00
44765;BME280;30484;52.382;5.260;2022-09-02T02:15:53;101864.22;;;16.87;100.00
44765;BME280;30484;52.382;5.260;2022-09-02T02:18:23;101853.09;;;16.93;100.00
44765;BME280;30484;52.382;5.260;2022-09-02T02:20:52;101861.22;;;17.07;100.00
44765;BME280;30484;52.382;5.260;2022-09-02T02:23:20;101859.44;;;16.92;100.00
44765;BME280;30484;52.382;5.260;2022-09-02T02:25:50;101853.41;;;16.87;100.00
44765;BME280;30484;52.382;5.260;2022-09-02T02:28:19;101854.31;;;16.87;100.00
44765;BME280;30484;52.382;5.260;2022-09-02T02:30:49;101854.66;;;16.81;100.00
44765;BME280;30484;52.382;5.260;2022-09-02T02:33:18;101850.38;;;16.63;100.00
44765;BME280;30484;52.382;5.260;2022-09-02T02:35:47;101841.06;;;16.83;100.00
44765;BME280;30484;52.382;5.260;2022-09-02T02:38:16;101848.38;;;16.66;100.00
44765;BME280;30484;52.382;5.260;2022-09-02T02:40:44;101847.28;;;16.38;100.00
44765;BME280;30484;52.382;5.260;2022-09-02T02:43:13;101847.88;;;16.74;100.00
44765;BME280;30484;52.382;5.260;2022-09-02T02:45:41;101847.19;;;16.56;100.00
44765;BME280;30484;52.382;5.260;2022-09-02T02:48:11;101855.75;;;16.63;100.00
44765;BME280;30484;52.382;5.260;2022-09-02T02:50:40;101851.59;;;16.57;100.00
44765;BME280;30484;52.382;5.260;2022-09-02T02:53:09;101841.84;;;16.70;100.00
44765;BME280;30484;52.382;5.260;2022-09-02T02:55:40;101842.41;;;16.76;100.00
44765;BME280;30484;52.382;5.260;2022-09-02T02:58:09;101844.91;;;16.79;100.00
44765;BME280;30484;52.382;5.260;2022-09-02T03:00:42;101845.06;;;16.61;100.00
44765;BME280;30484;52.382;5.260;2022-09-02T03:03:14;101835.69;;;16.52;100.00
44765;BME280;30484;52.382;5.260;2022-09-02T03:05:47;101835.56;;;16.84;100.00
44765;BME280;30484;52.382;5.260;2022-09-02T03:08:17;101832.59;;;16.74;100.00
44765;BME280;30484;52.382;5.260;2022-09-02T03:10:49;101834.78;;;16.68;100.00
44765;BME280;30484;52.382;5.260;2022-09-02T03:13:21;101828.44;;;16.69;100.00
44765;BME280;30484;52.382;5.260;2022-09-02T03:15:50;101832.63;;;16.59;100.00
44765;BME280;30484;52.382;5.260;2022-09-02T03:18:20;101829.47;;;16.66;100.00
44765;BME280;30484;52.382;5.260;2022-09-02T03:20:48;101835.66;;;16.83;100.00
44765;BME280;30484;52.382;5.260;2022-09-02T03:23:17;101822.66;;;16.75;100.00
44765;BME280;30484;52.382;5.260;2022-09-02T03:25:46;101828.38;;;16.54;100.00
44765;BME280;30484;52.382;5.260;2022-09-02T03:28:15;101822.13;;;16.54;100.00
44765;BME280;30484;52.382;5.260;2022-09-02T03:30:45;101824.22;;;16.49;100.00
44765;BME280;30484;52.382;5.260;2022-09-02T03:33:14;101831.53;;;16.47;100.00
44765;BME280;30484;52.382;5.260;2022-09-02T03:35:45;101821.72;;;16.60;100.00
44765;BME280;30484;52.382;5.260;2022-09-02T03:38:13;101828.31;;;16.56;100.00
44765;BME280;30484;52.382;5.260;2022-09-02T03:40:41;101816.13;;;16.49;100.00
44765;BME280;30484;52.382;5.260;2022-09-02T03:43:11;101825.53;;;16.42;100.00
44765;BME280;30484;52.382;5.260;2022-09-02T03:45:41;101810.56;;;16.52;100.00
44765;BME280;30484;52.382;5.260;2022-09-02T03:48:12;101812.91;;;16.72;100.00
44765;BME280;30484;52.382;5.260;2022-09-02T03:50:44;101810.47;;;16.53;100.00
44765;BME280;30484;52.382;5.260;2022-09-02T03:53:13;101802.97;;;16.28;100.00
44765;BME280;30484;52.382;5.260;2022-09-02T03:55:46;101803.66;;;16.32;100.00
44765;BME280;30484;52.382;5.260;2022-09-02T03:58:17;101802.72;;;16.47;100.00
44765;BME280;30484;52.382;5.260;2022-09-02T04:00:50;101801.25;;;16.42;100.00
44765;BME280;30484;52.382;5.260;2022-09-02T04:03:18;101796.25;;;16.35;100.00
44765;BME280;30484;52.382;5.260;2022-09-02T04:05:50;101801.25;;;16.42;100.00
44765;BME280;30484;52.382;5.260;2022-09-02T04:08:19;101793.03;;;16.29;100.00
44765;BME280;30484;52.382;5.260;2022-09-02T04:10:47;101799.47;;;16.56;100.00
44765;BME280;30484;52.382;5.260;2022-09-02T04:13:16;101790.44;;;16.58;100.00
44765;BME280;30484;52.382;5.260;2022-09-02T04:15:46;101795.16;;;16.68;100.00
44765;BME280;30484;52.382;5.260;2022-09-02T04:18:18;101802.97;;;16.28;100.00
44765;BME280;30484;52.382;5.260;2022-09-02T04:20:49;101791.25;;;16.44;100.00
44765;BME280;30484;52.382;5.260;2022-09-02T04:23:18;101793.13;;;16.58;100.00
44765;BME280;30484;52.382;5.260;2022-09-02T04:25:46;101793.81;;;16.61;100.00
44765;BME280;30484;52.382;5.260;2022-09-02T04:28:15;101793.28;;;16.54;100.00
44765;BME280;30484;52.382;5.260;2022-09-02T04:30:43;101791.91;;;16.63;100.00
44765;BME280;30484;52.382;5.260;2022-09-02T04:33:12;101789.56;;;16.57;100.00
44765;BME280;30484;52.382;5.260;2022-09-02T04:35:41;101777.81;;;16.72;100.00
44765;BME280;30484;52.382;5.260;2022-09-02T04:38:12;101778.91;;;16.84;100.00
44765;BME280;30484;52.382;5.260;2022-09-02T04:40:42;101783.97;;;16.90;100.00
44765;BME280;30484;52.382;5.260;2022-09-02T04:43:11;101778.63;;;16.74;100.00
44765;BME280;30484;52.382;5.260;2022-09-02T04:45:43;101775.53;;;16.81;100.00
44765;BME280;30484;52.382;5.260;2022-09-02T04:48:12;101779.63;;;17.02;100.00
44765;BME280;30484;52.382;5.260;2022-09-02T04:50:41;101785.50;;;16.95;100.00
44765;BME280;30484;52.382;5.260;2022-09-02T04:53:12;101791.66;;;16.97;100.00
44765;BME280;30484;52.382;5.260;2022-09-02T04:55:42;101778.91;;;16.84;100.00
44765;BME280;30484;52.382;5.260;2022-09-02T04:58:10;101786.56;;;16.92;100.00
44765;BME280;30484;52.382;5.260;2022-09-02T05:00:40;101780.00;;;17.11;100.00
44765;BME280;30484;52.382;5.260;2022-09-02T05:03:09;101781.75;;;17.12;100.00
44765;BME280;30484;52.382;5.260;2022-09-02T05:05:39;101777.81;;;17.17;100.00
44765;BME280;30484;52.382;5.260;2022-09-02T05:08:07;101779.81;;;17.28;100.00
44765;BME280;30484;52.382;5.260;2022-09-02T05:10:40;101778.06;;;17.41;100.00
44765;BME280;30484;52.382;5.260;2022-09-02T05:13:08;101779.03;;;17.26;100.00
44765;BME280;30484;52.382;5.260;2022-09-02T05:15:38;101775.09;;;17.17;100.00
44765;BME280;30484;52.382;5.260;2022-09-02T05:18:07;101772.06;;;17.51;100.00
44765;BME280;30484;52.382;5.260;2022-09-02T05:20:37;101779.66;;;17.58;100.00
44765;BME280;30484;52.382;5.260;2022-09-02T05:23:06;101777.94;;;17.57;100.00
44765;BME280;30484;52.382;5.260;2022-09-02T05:25:37;101765.88;;;17.34;100.00
44765;BME280;30484;52.382;5.260;2022-09-02T05:28:06;101766.81;;;17.62;100.00
44765;BME280;30484;52.382;5.260;2022-09-02T05:30:35;101770.34;;;17.77;100.00
44765;BME280;30484;52.382;5.260;2022-09-02T05:33:05;101771.59;;;17.71;100.00
44765;BME280;30484;52.382;5.260;2022-09-02T05:35:39;101766.44;;;18.23;100.00
44765;BME280;30484;52.382;5.260;2022-09-02T05:38:11;101767.59;;;18.06;100.00
44765;BME280;30484;52.382;5.260;2022-09-02T05:40:42;101767.19;;;18.25;100.00
44765;BME280;30484;52.382;5.260;2022-09-02T05:43:10;101768.44;;;18.06;100.00
44765;BME280;30484;52.382;5.260;2022-09-02T05:45:39;101773.34;;;18.27;100.00
44765;BME280;30484;52.382;5.260;2022-09-02T05:48:08;101764.78;;;18.07;100.00
44765;BME280;30484;52.382;5.260;2022-09-02T05:50:50;101761.63;;;17.86;100.00
44765;BME280;30484;52.382;5.260;2022-09-02T05:53:24;101764.31;;;18.01;100.00
44765;BME280;30484;52.382;5.260;2022-09-02T05:55:55;101760.25;;;18.21;100.00
44765;BME280;30484;52.382;5.260;2022-09-02T05:58:24;101776.63;;;17.77;100.00
44765;BME280;30484;52.382;5.260;2022-09-02T06:00:52;101766.44;;;18.23;100.00
44765;BME280;30484;52.382;5.260;2022-09-02T06:03:21;101767.22;;;18.38;100.00
44765;BME280;30484;52.382;5.260;2022-09-02T06:05:54;101767.19;;;18.25;100.00
44765;BME280;30484;52.382;5.260;2022-09-02T06:08:23;101760.16;;;18.35;100.00
44765;BME280;30484;52.382;5.260;2022-09-02T06:10:51;101764.00;;;18.58;100.00
44765;BME280;30484;52.382;5.260;2022-09-02T06:13:21;101757.66;;;18.19;100.00
44765;BME280;30484;52.382;5.260;2022-09-02T06:15:50;101766.97;;;18.28;100.00
44765;BME280;30484;52.382;5.260;2022-09-02T06:18:19;101762.59;;;18.40;100.00
44765;BME280;30484;52.382;5.260;2022-09-02T06:20:50;101759.97;;;18.51;100.00
44765;BME280;30484;52.382;5.260;2022-09-02T06:23:18;101765.50;;;18.50;100.00
44765;BME280;30484;52.382;5.260;2022-09-02T06:25:48;101760.09;;;18.75;100.00
44765;BME280;30484;52.382;5.260;2022-09-02T06:28:17;101759.03;;;18.78;100.00
44765;BME280;30484;52.382;5.260;2022-09-02T06:30:47;101760.44;;;19.09;100.00
44765;BME280;30484;52.382;5.260;2022-09-02T06:33:17;101755.44;;;19.66;100.00
44765;BME280;30484;52.382;5.260;2022-09-02T06:35:45;101753.97;;;19.49;100.00
44765;BME280;30484;52.382;5.260;2022-09-02T06:38:14;101753.09;;;19.48;100.00
44765;BME280;30484;52.382;5.260;2022-09-02T06:40:48;101757.75;;;19.46;100.00
44765;BME280;30484;52.382;5.260;2022-09-02T06:43:17;101760.25;;;19.49;100.00
44765;BME280;30484;52.382;5.260;2022-09-02T06:45:48;101759.41;;;19.73;100.00
44765;BME280;30484;52.382;5.260;2022-09-02T06:48:16;101758.00;;;19.43;100.00
44765;BME280;30484;52.382;5.260;2022-09-02T06:50:45;101749.19;;;19.53;100.00
44765;BME280;30484;52.382;5.260;2022-09-02T06:53:14;101751.84;;;19.41;100.00
44765;BME280;30484;52.382;5.260;2022-09-02T06:55:44;101749.59;;;19.59;100.00
44765;BME280;30484;52.382;5.260;2022-09-02T06:58:13;101754.25;;;19.94;100.00
44765;BME280;30484;52.382;5.260;2022-09-02T07:00:42;101757.53;;;19.62;100.00
44765;BME280;30484;52.382;5.260;2022-09-02T07:03:12;101749.25;;;20.01;100.00
44765;BME280;30484;52.382;5.260;2022-09-02T07:06:03;101749.41;;;19.74;100.00
44765;BME280;30484;52.382;5.260;2022-09-02T07:08:36;101741.28;;;19.87;100.00
44765;BME280;30484;52.382;5.260;2022-09-02T07:11:11;101749.69;;;19.95;100.00
44765;BME280;30484;52.382;5.260;2022-09-02T07:13:42;101745.31;;;20.05;100.00
44765;BME280;30484;52.382;5.260;2022-09-02T07:16:11;101751.16;;;20.23;100.00
44765;BME280;30484;52.382;5.260;2022-09-02T07:18:55;101745.75;;;19.99;100.00
44765;BME280;30484;52.382;5.260;2022-09-02T07:21:24;101744.19;;;20.08;100.00
44765;BME280;30484;52.382;5.260;2022-09-02T07:23:52;101744.66;;;20.37;100.00
44765;BME280;30484;52.382;5.260;2022-09-02T07:26:21;101737.50;;;20.36;100.00
44765;BME280;30484;52.382;5.260;2022-09-02T07:28:49;101741.47;;;20.43;100.00
44765;BME280;30484;52.382;5.260;2022-09-02T07:31:18;101743.75;;;20.61;100.00
44765;BME280;30484;52.382;5.260;2022-09-02T07:33:48;101737.88;;;20.90;100.00
44765;BME280;30484;52.382;5.260;2022-09-02T07:36:18;101737.38;;;20.96;100.00
44765;BME280;30484;52.382;5.260;2022-09-02T07:38:47;101726.50;;;20.96;100.00
44765;BME280;30484;52.382;5.260;2022-09-02T07:41:16;101729.09;;;21.31;100.00
44765;BME280;30484;52.382;5.260;2022-09-02T07:43:44;101733.78;;;21.41;100.00
44765;BME280;30484;52.382;5.260;2022-09-02T07:46:18;101741.53;;;21.45;100.00
44765;BME280;30484;52.382;5.260;2022-09-02T07:48:49;101725.94;;;21.70;100.00
44765;BME280;30484;52.382;5.260;2022-09-02T07:51:19;101724.69;;;21.74;100.00
44765;BME280;30484;52.382;5.260;2022-09-02T07:53:47;101720.81;;;21.88;100.00
44765;BME280;30484;52.382;5.260;2022-09-02T07:56:17;101715.44;;;21.98;100.00
44765;BME280;30484;52.382;5.260;2022-09-02T07:58:46;101726.66;;;22.04;100.00
44765;BME280;30484;52.382;5.260;2022-09-02T08:01:14;101731.69;;;21.88;100.00
44765;BME280;30484;52.382;5.260;2022-09-02T08:03:49;101720.22;;;21.73;100.00
44765;BME280;30484;52.382;5.260;2022-09-02T08:06:20;101716.09;;;21.90;100.00
44765;BME280;30484;52.382;5.260;2022-09-02T08:09:01;101716.53;;;22.49;100.00
44765;BME280;30484;52.382;5.260;2022-09-02T08:11:30;101709.22;;;22.70;100.00
44765;BME280;30484;52.382;5.260;2022-09-02T08:13:59;101715.06;;;22.23;100.00
44765;BME280;30484;52.382;5.260;2022-09-02T08:16:29;101703.59;;;21.87;100.00
44765;BME280;30484;52.382;5.260;2022-09-02T08:18:57;101715.19;;;22.01;100.00
44765;BME280;30484;52.382;5.260;2022-09-02T08:21:27;101704.16;;;22.66;100.00
44765;BME280;30484;52.382;5.260;2022-09-02T08:23:56;101710.88;;;22.62;100.00
44765;BME280;30484;52.382;5.260;2022-09-02T08:26:26;101702.19;;;22.68;100.00
44765;BME280;30484;52.382;5.260;2022-09-02T08:28:55;101713.28;;;22.86;100.00
44765;BME280;30484;52.382;5.260;2022-09-02T08:31:24;101706.00;;;22.86;100.00
44765;BME280;30484;52.382;5.260;2022-09-02T08:33:52;101707.00;;;22.85;100.00
44765;BME280;30484;52.382;5.260;2022-09-02T08:36:20;101708.06;;;22.42;100.00
44765;BME280;30484;52.382;5.260;2022-09-02T08:38:50;101701.09;;;23.11;100.00
44765;BME280;30484;52.382;5.260;2022-09-02T08:41:22;101695.34;;;23.14;100.00
44765;BME280;30484;52.382;5.260;2022-09-02T08:43:55;101701.47;;;23.57;100.00
44765;BME280;30484;52.382;5.260;2022-09-02T08:46:27;101709.59;;;23.18;100.00
44765;BME280;30484;52.382;5.260;2022-09-02T08:49:02;101702.75;;;23.33;100.00
44765;BME280;30484;52.382;5.260;2022-09-02T08:51:35;101707.38;;;23.52;100.00
44765;BME280;30484;52.382;5.260;2022-09-02T08:54:10;101696.75;;;23.49;100.00
44765;BME280;30484;52.382;5.260;2022-09-02T08:56:43;101704.22;;;23.67;100.00
44765;BME280;30484;52.382;5.260;2022-09-02T08:59:12;101691.88;;;23.63;100.00
44765;BME280;30484;52.382;5.260;2022-09-02T09:01:47;101698.22;;;23.92;100.00
44765;BME280;30484;52.382;5.260;2022-09-02T09:04:25;101685.28;;;23.75;100.00
44765;BME280;30484;52.382;5.260;2022-09-02T09:07:20;101693.16;;;24.27;100.00
44765;BME280;30484;52.382;5.260;2022-09-02T09:10:03;101690.09;;;24.40;100.00
44765;BME280;30484;52.382;5.260;2022-09-02T09:13:03;101689.66;;;24.54;100.00
44765;BME280;30484;52.382;5.260;2022-09-02T09:15:42;101693.59;;;24.22;100.00
44765;BME280;30484;52.382;5.260;2022-09-02T09:18:19;101689.94;;;24.61;100.00
44765;BME280;30484;52.382;5.260;2022-09-02T09:20:51;101685.75;;;24.67;100.00
44765;BME280;30484;52.382;5.260;2022-09-02T09:23:28;101687.66;;;25.22;100.00
44765;BME280;30484;52.382;5.260;2022-09-02T09:26:08;101687.50;;;25.23;100.00
44765;BME280;30484;52.382;5.260;2022-09-02T09:28:38;101679.00;;;25.54;100.00
44765;BME280;30484;52.382;5.260;2022-09-02T09:31:12;101675.22;;;25.55;100.00
44765;BME280;30484;52.382;5.260;2022-09-02T09:33:55;101683.44;;;25.73;99.64
44765;BME280;30484;52.382;5.260;2022-09-02T09:36:43;101685.94;;;25.21;100.00
44765;BME280;30484;52.382;5.260;2022-09-02T09:39:18;101676.78;;;25.40;98.76
44765;BME280;30484;52.382;5.260;2022-09-02T09:41:49;101672.50;;;25.27;96.31
44765;BME280;30484;52.382;5.260;2022-09-02T09:44:42;101676.47;;;26.15;94.22
44765;BME280;30484;52.382;5.260;2022-09-02T09:47:15;101679.44;;;26.04;91.63
44765;BME280;30484;52.382;5.260;2022-09-02T09:49:50;101683.13;;;25.58;95.76
44765;BME280;30484;52.382;5.260;2022-09-02T09:52:24;101670.59;;;25.74;93.17
44765;BME280;30484;52.382;5.260;2022-09-02T09:55:14;101665.91;;;26.20;93.08
44765;BME280;30484;52.382;5.260;2022-09-02T09:57:52;101664.47;;;25.98;94.38
44765;BME280;30484;52.382;5.260;2022-09-02T10:00:35;101658.53;;;26.21;94.05
44765;BME280;30484;52.382;5.260;2022-09-02T10:03:06;101660.66;;;26.09;96.00
44765;BME280;30484;52.382;5.260;2022-09-02T10:05:36;101656.44;;;26.41;90.49
44765;BME280;30484;52.382;5.260;2022-09-02T10:08:18;101654.22;;;26.70;88.58
44765;BME280;30484;52.382;5.260;2022-09-02T10:10:58;101651.06;;;27.43;87.58
44765;BME280;30484;52.382;5.260;2022-09-02T10:13:31;101654.06;;;27.23;88.89
44765;BME280;30484;52.382;5.260;2022-09-02T10:16:14;101655.44;;;27.19;88.50
44765;BME280;30484;52.382;5.260;2022-09-02T10:18:54;101648.69;;;27.40;82.98
44765;BME280;30484;52.382;5.260;2022-09-02T10:21:46;101657.63;;;27.58;84.04
44765;BME280;30484;52.382;5.260;2022-09-02T10:24:36;101649.72;;;27.47;84.18
44765;BME280;30484;52.382;5.260;2022-09-02T10:27:15;101639.81;;;27.11;86.81
44765;BME280;30484;52.382;5.260;2022-09-02T10:29:53;101643.78;;;27.17;85.02
44765;BME280;30484;52.382;5.260;2022-09-02T10:32:38;101638.41;;;27.58;85.35
44765;BME280;30484;52.382;5.260;2022-09-02T10:35:16;101640.19;;;27.25;85.18
44765;BME280;30484;52.382;5.260;2022-09-02T10:38:04;101639.75;;;26.95;85.75
44765;BME280;30484;52.382;5.260;2022-09-02T10:40:42;101637.72;;;27.72;85.97
44765;BME280;30484;52.382;5.260;2022-09-02T10:43:26;101634.28;;;27.79;83.24
44765;BME280;30484;52.382;5.260;2022-09-02T10:46:00;101632.38;;;27.96;77.01
44765;BME280;30484;52.382;5.260;2022-09-02T10:48:40;101633.97;;;28.15;78.57
44765;BME280;30484;52.382;5.260;2022-09-02T10:51:18;101629.31;;;27.99;78.08
44765;BME280;30484;52.382;5.260;2022-09-02T10:54:02;101633.75;;;27.83;77.27
44765;BME280;30484;52.382;5.260;2022-09-02T10:56:42;101618.78;;;28.44;77.19
44765;BME280;30484;52.382;5.260;2022-09-02T10:59:18;101609.91;;;28.25;77.22
44765;BME280;30484;52.382;5.260;2022-09-02T11:01:53;101620.47;;;28.45;75.15
44765;BME280;30484;52.382;5.260;2022-09-02T11:04:33;101622.00;;;28.55;70.36
44765;BME280;30484;52.382;5.260;2022-09-02T11:07:08;101608.47;;;28.37;72.00
44765;BME280;30484;52.382;5.260;2022-09-02T11:09:42;101605.38;;;28.88;72.25
44765;BME280;30484;52.382;5.260;2022-09-02T11:12:18;101605.53;;;28.95;72.32
44765;BME280;30484;52.382;5.260;2022-09-02T11:14:58;101609.03;;;28.81;72.44
44765;BME280;30484;52.382;5.260;2022-09-02T11:17:37;101611.81;;;29.04;66.66
44765;BME280;30484;52.382;5.260;2022-09-02T11:20:13;101599.28;;;29.01;68.06
44765;BME280;30484;52.382;5.260;2022-09-02T11:22:54;101605.00;;;28.52;69.79
44765;BME280;30484;52.382;5.260;2022-09-02T11:25:29;101609.81;;;29.29;70.73
44765;BME280;30484;52.382;5.260;2022-09-02T11:28:23;101596.47;;;28.86;69.14
44765;BME280;30484;52.382;5.260;2022-09-02T11:30:57;101599.41;;;29.63;67.98
44765;BME280;30484;52.382;5.260;2022-09-02T11:33:49;101595.34;;;29.73;64.43
44765;BME280;30484;52.382;5.260;2022-09-02T11:36:19;101602.13;;;29.16;68.81
44765;BME280;30484;52.382;5.260;2022-09-02T11:38:55;101594.66;;;29.71;70.82
44765;BME280;30484;52.382;5.260;2022-09-02T11:42:11;101581.38;;;29.98;63.21
44765;BME280;30484;52.382;5.260;2022-09-02T11:45:19;101576.28;;;29.72;64.38
44765;BME280;30484;52.382;5.260;2022-09-02T11:48:28;101575.59;;;30.08;61.35
44765;BME280;30484;52.382;5.260;2022-09-02T11:51:27;101577.78;;;30.27;61.79
44765;BME280;30484;52.382;5.260;2022-09-02T11:54:01;101576.06;;;29.73;61.04
44765;BME280;30484;52.382;5.260;2022-09-02T11:56:37;101566.78;;;29.74;60.08
44765;BME280;30484;52.382;5.260;2022-09-02T11:59:17;101558.03;;;30.09;61.52
44765;BME280;30484;52.382;5.260;2022-09-02T12:01:49;101564.38;;;30.39;58.90
44765;BME280;30484;52.382;5.260;2022-09-02T12:04:23;101556.59;;;30.13;59.98
44765;BME280;30484;52.382;5.260;2022-09-02T12:07:24;101545.09;;;31.06;57.98
44765;BME280;30484;52.382;5.260;2022-09-02T12:10:03;101557.06;;;30.98;58.30
44765;BME280;30484;52.382;5.260;2022-09-02T12:13:02;101547.97;;;30.83;57.63
44765;BME280;30484;52.382;5.260;2022-09-02T12:15:41;101547.97;;;30.83;56.67
44765;BME280;30484;52.382;5.260;2022-09-02T12:18:26;101540.19;;;30.71;57.12
44765;BME280;30484;52.382;5.260;2022-09-02T12:21:11;101536.81;;;30.54;57.75
44765;BME280;30484;52.382;5.260;2022-09-02T12:24:21;101539.56;;;30.91;56.15
44765;BME280;30484;52.382;5.260;2022-09-02T12:27:24;101539.38;;;30.41;53.51
44765;BME280;30484;52.382;5.260;2022-09-02T12:29:53;101535.09;;;30.08;54.67
44765;BME280;30484;52.382;5.260;2022-09-02T12:35:52;101527.28;;;30.27;55.48
44765;BME280;30484;52.382;5.260;2022-09-02T12:38:36;101532.44;;;30.45;53.34
44765;BME280;30484;52.382;5.260;2022-09-02T12:41:27;101516.94;;;30.59;48.85
44765;BME280;30484;52.382;5.260;2022-09-02T12:44:17;101536.75;;;29.79;47.87
44765;BME280;30484;52.382;5.260;2022-09-02T12:47:03;101515.13;;;30.66;46.51
44765;BME280;30484;52.382;5.260;2022-09-02T12:49:40;101530.22;;;31.57;46.73
44765;BME280;30484;52.382;5.260;2022-09-02T12:52:11;101527.31;;;31.15;46.80
44765;BME280;30484;52.382;5.260;2022-09-02T12:55:08;101525.63;;;30.26;47.34
44765;BME280;30484;52.382;5.260;2022-09-02T12:57:42;101517.91;;;31.31;47.26
44765;BME280;30484;52.382;5.260;2022-09-02T13:00:14;101507.91;;;31.52;45.74
44765;BME280;30484;52.382;5.260;2022-09-02T13:02:52;101505.75;;;31.75;43.92
44765;BME280;30484;52.382;5.260;2022-09-02T13:05:29;101502.13;;;32.03;43.82
44765;BME280;30484;52.382;5.260;2022-09-02T13:08:48;101501.41;;;32.23;40.24
44765;BME280;30484;52.382;5.260;2022-09-02T13:27:27;101508.59;;;31.32;41.83
44765;BME280;30484;52.382;5.260;2022-09-02T13:30:22;101497.78;;;30.72;42.82
44765;BME280;30484;52.382;5.260;2022-09-02T13:32:58;101478.00;;;32.18;41.54
44765;BME280;30484;52.382;5.260;2022-09-02T13:35:36;101487.06;;;32.12;42.42